createdAt,value
2018-09-03T00:01:30.454Z,99548.81
2018-09-03T00:03:58.156Z,99552.20
2018-09-03T00:06:25.827Z,99550.53
2018-09-03T00:08:53.482Z,99547.78
2018-09-03T00:11:21.175Z,99547.25
2018-09-03T00:13:48.836Z,99549.16
2018-09-03T00:16:16.518Z,99550.89
2018-09-03T00:18:44.220Z,99550.91
2018-09-03T00:21:11.893Z,99555.05
2018-09-03T00:23:39.590Z,99560.30
2018-09-03T00:26:07.293Z,99558.12
2018-09-03T00:28:34.975Z,99560.09
2018-09-03T00:31:08.150Z,99560.92
2018-09-03T00:33:41.305Z,99552.37
2018-09-03T00:36:14.428Z,99554.34
2018-09-03T00:38:47.598Z,99552.70
2018-09-03T00:41:20.779Z,99553.30
2018-09-03T00:43:53.955Z,99553.05
2018-09-03T00:46:27.170Z,99554.13
2018-09-03T00:48:54.826Z,99551.37
2018-09-03T00:51:22.543Z,99551.95
2018-09-03T00:53:50.242Z,99540.95
2018-09-03T00:56:17.942Z,99538.79
2018-09-03T00:58:45.611Z,99544.04
2018-09-03T01:01:13.294Z,99545.16
2018-09-03T01:03:40.952Z,99544.59
2018-09-03T01:06:08.627Z,99540.51
2018-09-03T01:08:36.324Z,99541.89
2018-09-03T01:11:04.027Z,99536.66
2018-09-03T01:13:31.698Z,99538.31
2018-09-03T01:15:59.385Z,99540.22
2018-09-03T01:18:27.074Z,99537.20
2018-09-03T01:20:54.746Z,99537.73
2018-09-03T01:23:22.467Z,99532.80
2018-09-03T01:25:50.159Z,99537.73
2018-09-03T01:28:17.855Z,99538.31
2018-09-03T01:30:45.528Z,99536.11
2018-09-03T01:33:13.189Z,99533.35
2018-09-03T01:35:40.832Z,99531.45
2018-09-03T01:38:08.593Z,99529.52
2018-09-03T01:40:36.242Z,99528.95
2018-09-03T01:43:03.949Z,99528.41
2018-09-03T01:45:31.642Z,99522.91
2018-09-03T01:47:59.287Z,99530.05
2018-09-03T01:50:26.945Z,99523.19
2018-09-03T01:52:54.629Z,99521.80
2018-09-03T01:55:22.298Z,99528.13
2018-09-03T01:57:50.007Z,99519.88
2018-09-03T02:00:17.722Z,99520.41
2018-09-03T02:02:45.388Z,99516.86
2018-09-03T02:05:13.051Z,99516.88
2018-09-03T02:07:40.756Z,99519.05
2018-09-03T02:10:08.427Z,99523.17
2018-09-03T02:12:36.075Z,99519.08
2018-09-03T02:15:03.827Z,99515.48
2018-09-03T02:17:31.590Z,99517.70
2018-09-03T02:19:59.250Z,99517.41
2018-09-03T02:22:26.962Z,99516.88
2018-09-03T02:24:54.655Z,99510.27
2018-09-03T02:27:22.355Z,99516.86
2018-09-03T02:29:50.063Z,99513.28
2018-09-03T02:32:17.747Z,99516.82
2018-09-03T02:34:45.414Z,99516.27
2018-09-03T02:37:13.131Z,99509.92
2018-09-03T02:39:40.821Z,99517.91
2018-09-03T02:42:08.569Z,99513.23
2018-09-03T02:44:36.317Z,99510.47
2018-09-03T02:47:05.130Z,99512.94
2018-09-03T02:49:32.801Z,99510.73
2018-09-03T02:52:00.532Z,99512.66
2018-09-03T02:54:28.221Z,99511.00
2018-09-03T02:56:55.979Z,99510.44
2018-09-03T02:59:23.672Z,99510.20
2018-09-03T03:01:51.352Z,99514.85
2018-09-03T03:04:19.037Z,99511.55
2018-09-03T03:06:46.767Z,99512.11
2018-09-03T03:09:14.426Z,99511.31
2018-09-03T03:11:42.157Z,99510.75
2018-09-03T03:14:09.899Z,99509.09
2018-09-03T03:16:37.579Z,99504.44
2018-09-03T03:19:05.395Z,99506.35
2018-09-03T03:21:33.189Z,99502.52
2018-09-03T03:24:00.907Z,99499.78
2018-09-03T03:26:28.590Z,99500.34
2018-09-03T03:28:56.307Z,99504.73
2018-09-03T03:31:23.999Z,99501.70
2018-09-03T03:33:51.826Z,99500.88
2018-09-03T03:36:19.530Z,99503.63
2018-09-03T03:38:47.250Z,99501.42
2018-09-03T03:41:14.930Z,99509.69
2018-09-03T03:43:42.639Z,99510.82
2018-09-03T03:46:10.296Z,99509.12
2018-09-03T03:48:37.988Z,99507.49
2018-09-03T03:51:05.734Z,99509.67
2018-09-03T03:53:33.417Z,99518.20
2018-09-03T03:56:01.089Z,99508.85
2018-09-03T03:58:28.806Z,99513.51
2018-09-03T04:00:56.465Z,99507.51
2018-09-03T04:03:24.133Z,99513.58
2018-09-03T04:05:51.840Z,99511.91
2018-09-03T04:08:19.514Z,99509.17
2018-09-03T04:10:47.173Z,99501.14
2018-09-03T04:13:14.860Z,99507.73
2018-09-03T04:15:42.539Z,99502.77
2018-09-03T04:18:10.203Z,99508.80
2018-09-03T04:20:37.882Z,99499.25
2018-09-03T04:23:05.832Z,99494.36
2018-09-03T04:25:33.501Z,99492.32
2018-09-03T04:28:01.302Z,99497.33
2018-09-03T04:30:29.055Z,99501.58
2018-09-03T04:32:56.734Z,99495.63
2018-09-03T04:35:24.482Z,99487.98
2018-09-03T04:37:52.369Z,99482.14
2018-09-03T04:40:20.109Z,99485.31
2018-09-03T04:42:47.803Z,99479.88
2018-09-03T04:45:15.501Z,99470.13
2018-09-03T04:47:43.166Z,99465.41
2018-09-03T04:50:10.850Z,99457.78
2018-09-03T04:52:38.549Z,99462.38
2018-09-03T04:55:06.346Z,99457.78
2018-09-03T04:57:34.028Z,99450.75
2018-09-03T05:00:01.696Z,99442.81
2018-09-03T05:02:29.358Z,99443.82
2018-09-03T05:04:57.047Z,99446.31
2018-09-03T05:07:24.732Z,99453.72
2018-09-03T05:09:53.114Z,99452.75
2018-09-03T05:12:20.834Z,99461.58
2018-09-03T05:14:48.612Z,99463.48
2018-09-03T05:17:16.288Z,99453.06
2018-09-03T05:19:44.011Z,99450.71
2018-09-03T05:22:11.672Z,99452.11
2018-09-03T05:24:39.458Z,99455.16
2018-09-03T05:27:07.198Z,99456.08
2018-09-03T05:29:34.976Z,99444.65
2018-09-03T05:32:02.711Z,99441.57
2018-09-03T05:34:30.405Z,99440.48
2018-09-03T05:36:58.055Z,99445.63
2018-09-03T05:39:25.720Z,99443.28
2018-09-03T05:41:53.462Z,99443.63
2018-09-03T05:44:21.122Z,99441.97
2018-09-03T05:46:48.798Z,99435.34
2018-09-03T05:49:16.502Z,99433.12
2018-09-03T05:51:44.179Z,99437.98
2018-09-03T05:54:11.850Z,99436.73
2018-09-03T05:56:39.717Z,99433.17
2018-09-03T05:59:07.509Z,99433.82
2018-09-03T06:01:35.209Z,99437.22
2018-09-03T06:04:03.295Z,99439.86
2018-09-03T06:06:31.001Z,99449.69
2018-09-03T06:08:58.648Z,99449.33
2018-09-03T06:11:26.406Z,99454.84
2018-09-03T06:13:54.062Z,99448.22
2018-09-03T06:16:22.502Z,99455.00
2018-09-03T06:18:50.308Z,99455.80
2018-09-03T06:21:17.995Z,99446.89
2018-09-03T06:23:45.671Z,99448.38
2018-09-03T06:26:13.381Z,99448.16
2018-09-03T06:28:41.063Z,99448.95
2018-09-03T06:31:08.753Z,99447.16
2018-09-03T06:33:36.471Z,99444.05
2018-09-03T06:36:04.154Z,99445.84
2018-09-03T06:38:31.845Z,99439.77
2018-09-03T06:40:59.567Z,99436.89
2018-09-03T06:43:27.243Z,99435.31
2018-09-03T06:45:54.957Z,99430.36
2018-09-03T06:48:22.655Z,99445.77
2018-09-03T06:50:50.329Z,99440.27
2018-09-03T06:53:18.233Z,99444.09
2018-09-03T06:55:46.023Z,99445.58
2018-09-03T06:58:13.686Z,99440.87
2018-09-03T07:00:41.331Z,99441.51
2018-09-03T07:03:09.059Z,99434.38
2018-09-03T07:05:36.727Z,99441.36
2018-09-03T07:08:04.465Z,99435.99
2018-09-03T07:10:32.187Z,99436.84
2018-09-03T07:13:04.341Z,99437.61
2018-09-03T07:15:32.116Z,99438.70
2018-09-03T07:18:00.047Z,99439.80
2018-09-03T07:20:27.718Z,99440.36
2018-09-03T07:22:55.557Z,99443.07
2018-09-03T07:25:23.234Z,99443.89
2018-09-03T07:27:50.907Z,99435.61
2018-09-03T07:30:18.613Z,99433.15
2018-09-03T07:32:46.286Z,99434.58
2018-09-03T07:35:13.998Z,99422.91
2018-09-03T07:37:41.680Z,99427.66
2018-09-03T07:40:09.366Z,99426.20
2018-09-03T07:42:37.064Z,99421.77
2018-09-03T07:45:05.163Z,99424.30
2018-09-03T07:47:32.893Z,99417.17
2018-09-03T07:50:00.575Z,99409.38
2018-09-03T07:52:28.391Z,99414.23
2018-09-03T07:54:56.075Z,99402.69
2018-09-03T07:57:23.995Z,99406.87
2018-09-03T07:59:51.728Z,99401.09
2018-09-03T08:02:19.437Z,99400.52
2018-09-03T08:04:47.130Z,99400.87
2018-09-03T08:07:14.882Z,99404.03
2018-09-03T08:09:42.695Z,99397.31
2018-09-03T08:12:10.392Z,99400.69
2018-09-03T08:14:38.076Z,99394.24
2018-09-03T08:17:05.869Z,99394.97
2018-09-03T08:19:33.581Z,99396.88
2018-09-03T08:22:01.875Z,99388.77
2018-09-03T08:24:29.584Z,99390.39
2018-09-03T08:26:57.350Z,99394.31
2018-09-03T08:29:25.086Z,99393.00
2018-09-03T08:31:52.899Z,99386.59
2018-09-03T08:34:20.637Z,99381.23
2018-09-03T08:36:48.356Z,99393.73
2018-09-03T08:39:16.035Z,99389.17
2018-09-03T08:41:43.738Z,99377.55
2018-09-03T08:44:11.491Z,99370.67
2018-09-03T08:46:39.196Z,99363.11
2018-09-03T08:49:06.970Z,99359.19
2018-09-03T08:51:34.678Z,99355.33
2018-09-03T08:54:02.437Z,99353.66
2018-09-03T08:56:30.209Z,99347.02
2018-09-03T08:58:57.985Z,99349.70
2018-09-03T09:01:25.692Z,99343.02
2018-09-03T09:03:53.475Z,99334.39
2018-09-03T09:06:21.201Z,99337.18
2018-09-03T09:08:48.908Z,99342.91
2018-09-03T09:11:16.613Z,99340.58
2018-09-03T09:13:44.366Z,99338.25
2018-09-03T09:16:12.094Z,99337.84
2018-09-03T09:18:39.868Z,99325.25
2018-09-03T09:21:07.738Z,99331.56
2018-09-03T09:23:35.461Z,99330.94
2018-09-03T09:26:03.194Z,99324.08
2018-09-03T09:28:30.971Z,99320.01
2018-09-03T09:30:58.729Z,99318.23
2018-09-03T09:33:26.473Z,99315.26
2018-09-03T09:35:54.267Z,99304.97
2018-09-03T09:38:22.073Z,99309.87
2018-09-03T09:40:49.761Z,99307.75
2018-09-03T09:43:17.589Z,99300.41
2018-09-03T09:45:45.341Z,99309.89
2018-09-03T09:48:13.146Z,99296.00
2018-09-03T09:50:41.174Z,99293.22
2018-09-03T09:53:08.903Z,99290.98
2018-09-03T09:55:36.545Z,99276.50
2018-09-03T09:58:04.325Z,99284.13
2018-09-03T10:00:37.671Z,99279.45
2018-09-03T10:03:05.606Z,99279.47
2018-09-03T10:05:33.341Z,99271.91
2018-09-03T10:08:01.041Z,99273.03
2018-09-03T10:10:29.216Z,99269.27
2018-09-03T10:12:57.026Z,99267.45
2018-09-03T10:15:24.755Z,99262.06
2018-09-03T10:17:52.517Z,99265.86
2018-09-03T10:20:20.257Z,99258.59
2018-09-03T10:22:48.059Z,99257.39
2018-09-03T10:25:15.785Z,99257.44
2018-09-03T10:27:43.485Z,99254.42
2018-09-03T10:30:11.189Z,99249.50
2018-09-03T10:32:39.064Z,99252.44
2018-09-03T10:35:06.897Z,99244.30
2018-09-03T10:37:34.692Z,99236.88
2018-09-03T10:40:02.444Z,99236.42
2018-09-03T10:42:30.229Z,99229.48
2018-09-03T10:44:57.950Z,99223.59
2018-09-03T10:47:25.690Z,99224.95
2018-09-03T10:49:53.393Z,99215.14
2018-09-03T10:52:21.085Z,99205.13
2018-09-03T10:54:48.808Z,99207.89
2018-09-03T10:57:16.514Z,99205.28
2018-09-03T10:59:44.225Z,99207.89
2018-09-03T11:02:11.984Z,99208.69
2018-09-03T11:04:39.713Z,99203.88
2018-09-03T11:07:07.890Z,99202.83
2018-09-03T11:09:35.963Z,99200.41
2018-09-03T11:12:04.919Z,99198.22
2018-09-03T11:14:32.719Z,99185.68
2018-09-03T11:17:00.442Z,99177.67
2018-09-03T11:19:30.352Z,99177.33
2018-09-03T11:21:58.060Z,99178.33
2018-09-03T11:24:26.132Z,99183.02
2018-09-03T11:26:53.876Z,99185.39
2018-09-03T11:29:21.562Z,99176.64
2018-09-03T11:31:49.310Z,99163.83
2018-09-03T11:34:17.085Z,99161.27
2018-09-03T11:36:44.815Z,99157.56
2018-09-03T11:39:12.706Z,99153.56
2018-09-03T11:41:41.142Z,99143.97
2018-09-03T11:44:08.881Z,99143.72
2018-09-03T11:46:36.920Z,99145.19
2018-09-03T11:49:04.969Z,99144.03
2018-09-03T11:51:32.679Z,99146.92
2018-09-03T11:54:00.464Z,99129.69
2018-09-03T11:56:28.207Z,99136.81
2018-09-03T11:58:56.794Z,99140.16
2018-09-03T12:01:24.569Z,99132.14
2018-09-03T12:03:52.727Z,99129.08
2018-09-03T12:06:20.415Z,99131.16
2018-09-03T12:08:48.160Z,99116.70
2018-09-03T12:11:15.928Z,99119.58
2018-09-03T12:13:43.619Z,99115.03
2018-09-03T12:16:13.256Z,99118.09
2018-09-03T12:18:42.177Z,99118.13
2018-09-03T12:21:10.536Z,99110.04
2018-09-03T12:23:38.622Z,99107.24
2018-09-03T12:26:06.938Z,99104.28
2018-09-03T12:28:34.765Z,99101.58
2018-09-03T12:31:02.557Z,99092.71
2018-09-03T12:33:30.302Z,99096.77
2018-09-03T12:35:57.973Z,99096.23
2018-09-03T12:38:25.753Z,99094.44
2018-09-03T12:40:53.494Z,99096.06
2018-09-03T12:43:21.241Z,99090.08
2018-09-03T12:45:54.395Z,99086.69
2018-09-03T12:48:22.345Z,99087.06
2018-09-03T12:50:50.178Z,99087.47
2018-09-03T12:53:17.920Z,99093.57
2018-09-03T12:55:45.601Z,99087.19
2018-09-03T12:58:13.300Z,99074.94
2018-09-03T13:00:41.084Z,99079.75
2018-09-03T13:03:08.995Z,99071.28
2018-09-03T13:05:36.712Z,99072.02
2018-09-03T13:08:04.507Z,99069.63
2018-09-03T13:10:32.250Z,99066.52
2018-09-03T13:12:59.949Z,99066.45
2018-09-03T13:15:27.721Z,99060.98
2018-09-03T13:17:55.414Z,99058.34
2018-09-03T13:20:23.136Z,99055.52
2018-09-03T13:22:50.902Z,99044.56
2018-09-03T13:25:18.635Z,99038.67
2018-09-03T13:27:46.574Z,99036.48
2018-09-03T13:30:14.324Z,99033.02
2018-09-03T13:32:42.038Z,99028.59
2018-09-03T13:35:09.742Z,99029.18
2018-09-03T13:37:37.502Z,99034.80
2018-09-03T13:40:05.618Z,99034.23
2018-09-03T13:42:33.377Z,99022.23
2018-09-03T13:45:01.206Z,99022.66
2018-09-03T13:47:28.929Z,99021.55
2018-09-03T13:49:56.657Z,99013.56
2018-09-03T13:52:24.399Z,99024.90
2018-09-03T13:54:52.160Z,99032.91
2018-09-03T13:57:19.889Z,99030.27
2018-09-03T13:59:47.639Z,99022.08
2018-09-03T14:02:15.397Z,99035.28
2018-09-03T14:04:43.189Z,99034.53
2018-09-03T14:07:10.917Z,99029.23
2018-09-03T14:09:38.766Z,99021.18
2018-09-03T14:12:07.208Z,99019.50
2018-09-03T14:14:35.005Z,99029.60
2018-09-03T14:17:02.813Z,99026.63
2018-09-03T14:19:30.564Z,99020.55
2018-09-03T14:21:58.363Z,99020.39
2018-09-03T14:24:26.113Z,99022.12
2018-09-03T14:26:54.160Z,99024.11
2018-09-03T14:29:21.888Z,99017.41
2018-09-03T14:31:49.634Z,99024.92
2018-09-03T14:34:17.377Z,99018.09
2018-09-03T14:36:45.148Z,99018.74
2018-09-03T14:39:12.894Z,99015.52
2018-09-03T14:41:40.596Z,99018.52
2018-09-03T14:44:08.908Z,99016.16
2018-09-03T14:46:36.594Z,99008.86
2018-09-03T14:49:05.062Z,99003.26
2018-09-03T14:51:32.793Z,99008.34
2018-09-03T14:54:00.485Z,99004.12
2018-09-03T14:56:28.174Z,99000.09
2018-09-03T14:58:55.948Z,98998.16
2018-09-03T15:01:23.973Z,99006.50
2018-09-03T15:03:51.677Z,99010.59
2018-09-03T15:06:19.419Z,99005.45
2018-09-03T15:08:47.174Z,99000.09
2018-09-03T15:11:14.926Z,99005.75
2018-09-03T15:13:42.765Z,99003.63
2018-09-03T15:16:10.481Z,99006.72
2018-09-03T15:18:38.221Z,99006.86
2018-09-03T15:21:05.976Z,99001.94
2018-09-03T15:23:33.808Z,99000.27
2018-09-03T15:26:01.627Z,98999.83
2018-09-03T15:28:29.341Z,98997.55
2018-09-03T15:30:57.043Z,98996.87
2018-09-03T15:33:24.773Z,98995.37
2018-09-03T15:35:52.540Z,98990.67
2018-09-03T15:38:20.285Z,98985.33
2018-09-03T15:40:47.974Z,98983.84
2018-09-03T15:43:15.793Z,98989.33
2018-09-03T15:45:43.522Z,98980.13
2018-09-03T15:48:11.261Z,98974.53
2018-09-03T15:50:38.989Z,98970.42
2018-09-03T15:53:06.761Z,98966.02
2018-09-03T15:55:34.520Z,98964.44
2018-09-03T15:58:02.298Z,98968.16
2018-09-03T16:00:29.991Z,98973.71
2018-09-03T16:02:57.756Z,98970.70
2018-09-03T16:05:25.520Z,98965.81
2018-09-03T16:07:53.234Z,98967.83
2018-09-03T16:10:20.938Z,98973.47
2018-09-03T16:12:48.649Z,98971.15
2018-09-03T16:15:16.376Z,98975.45
2018-09-03T16:17:44.114Z,98981.38
2018-09-03T16:20:11.898Z,98974.39
2018-09-03T16:22:39.659Z,98976.92
2018-09-03T16:25:07.505Z,98979.80
2018-09-03T16:27:35.264Z,98983.23
2018-09-03T16:30:03.056Z,98989.80
2018-09-03T16:32:30.725Z,98992.77
2018-09-03T16:34:58.524Z,98988.53
2018-09-03T16:37:26.197Z,98989.17
2018-09-03T16:39:53.940Z,98989.86
2018-09-03T16:42:21.744Z,98996.38
2018-09-03T16:44:49.489Z,98991.64
2018-09-03T16:47:17.161Z,99000.79
2018-09-03T16:49:44.948Z,98991.86
2018-09-03T16:52:12.662Z,98990.71
2018-09-03T16:54:40.329Z,98996.00
2018-09-03T16:57:08.149Z,99001.52
2018-09-03T16:59:35.876Z,99005.20
2018-09-03T17:02:03.614Z,99017.37
2018-09-03T17:04:31.453Z,99014.98
2018-09-03T17:06:59.225Z,99022.16
2018-09-03T17:09:27.049Z,99032.94
2018-09-03T17:11:54.833Z,99033.09
2018-09-03T17:14:22.744Z,99032.75
2018-09-03T17:16:50.426Z,99036.77
2018-09-03T17:19:18.197Z,99030.03
2018-09-03T17:21:45.888Z,99031.31
2018-09-03T17:24:13.603Z,99031.98
2018-09-03T17:26:41.402Z,99033.45
2018-09-03T17:29:09.141Z,99031.36
2018-09-03T17:31:36.825Z,99036.59
2018-09-03T17:34:04.550Z,99038.82
2018-09-03T17:36:32.273Z,99043.41
2018-09-03T17:39:00.054Z,99043.66
2018-09-03T17:41:27.791Z,99042.02
2018-09-03T17:43:55.468Z,99043.81
2018-09-03T17:46:23.205Z,99039.23
2018-09-03T17:48:51.245Z,99039.64
2018-09-03T17:51:18.965Z,99037.43
2018-09-03T17:53:46.701Z,99041.95
2018-09-03T17:56:14.494Z,99040.61
2018-09-03T17:58:42.322Z,99040.69
2018-09-03T18:01:10.072Z,99040.67
2018-09-03T18:03:37.957Z,99046.56
2018-09-03T18:06:05.915Z,99048.70
2018-09-03T18:08:33.769Z,99059.47
2018-09-03T18:11:01.537Z,99058.26
2018-09-03T18:13:29.296Z,99066.26
2018-09-03T18:15:56.998Z,99061.00
2018-09-03T18:18:24.785Z,99062.33
2018-09-03T18:20:52.478Z,99057.61
2018-09-03T18:23:20.166Z,99062.28
2018-09-03T18:25:47.917Z,99060.90
2018-09-03T18:28:15.632Z,99066.91
2018-09-03T18:30:43.457Z,99066.44
2018-09-03T18:33:11.313Z,99068.52
2018-09-03T18:35:39.018Z,99072.69
2018-09-03T18:38:06.729Z,99067.58
2018-09-03T18:40:34.504Z,99069.82
2018-09-03T18:43:02.337Z,99075.02
2018-09-03T18:45:30.057Z,99068.33
2018-09-03T18:47:57.818Z,99071.75
2018-09-03T18:50:25.533Z,99073.75
2018-09-03T18:52:53.338Z,99072.33
2018-09-03T18:55:21.061Z,99075.97
2018-09-03T18:57:48.821Z,99083.22
2018-09-03T19:00:16.565Z,99078.02
2018-09-03T19:02:44.283Z,99081.34
2018-09-03T19:05:12.050Z,99079.58
2018-09-03T19:07:39.765Z,99079.13
2018-09-03T19:10:07.568Z,99086.44
2018-09-03T19:12:35.274Z,99074.73
2018-09-03T19:15:03.025Z,99084.31
2018-09-03T19:17:30.765Z,99083.88
2018-09-03T19:19:58.497Z,99083.93
2018-09-03T19:22:26.226Z,99081.65
2018-09-03T19:24:54.025Z,99084.43
2018-09-03T19:27:21.852Z,99085.00
2018-09-03T19:29:49.548Z,99086.95
2018-09-03T19:32:17.312Z,99086.63
2018-09-03T19:34:45.045Z,99079.31
2018-09-03T19:37:12.768Z,99079.77
2018-09-03T19:39:40.544Z,99077.38
2018-09-03T19:42:08.433Z,99074.55
2018-09-03T19:44:36.135Z,99074.78
2018-09-03T19:47:03.858Z,99080.39
2018-09-03T19:49:31.593Z,99072.92
2018-09-03T19:51:59.363Z,99069.94
2018-09-03T19:54:27.149Z,99075.12
2018-09-03T19:56:54.848Z,99077.63
2018-09-03T19:59:22.554Z,99080.66
2018-09-03T20:01:50.284Z,99085.58
2018-09-03T20:04:17.988Z,99090.22
2018-09-03T20:06:45.657Z,99098.05
2018-09-03T20:09:13.408Z,99095.50
2018-09-03T20:11:41.154Z,99105.91
2018-09-03T20:14:08.836Z,99103.90
2018-09-03T20:16:36.637Z,99103.22
2018-09-03T20:19:04.397Z,99104.36
2018-09-03T20:21:32.080Z,99098.20
2018-09-03T20:23:59.935Z,99098.60
2018-09-03T20:26:27.620Z,99098.39
2018-09-03T20:28:55.337Z,99100.88
2018-09-03T20:31:23.102Z,99098.78
2018-09-03T20:33:50.826Z,99097.45
2018-09-03T20:36:18.561Z,99089.59
2018-09-03T20:38:46.325Z,99090.19
2018-09-03T20:41:14.351Z,99085.14
2018-09-03T20:43:42.088Z,99092.53
2018-09-03T20:46:09.813Z,99096.69
2018-09-03T20:48:37.657Z,99094.30
2018-09-03T20:51:06.219Z,99090.31
2018-09-03T20:53:33.983Z,99090.91
2018-09-03T20:56:01.938Z,99080.75
2018-09-03T20:58:29.785Z,99078.25
2018-09-03T21:00:57.527Z,99072.98
2018-09-03T21:03:25.232Z,99078.48
2018-09-03T21:05:52.960Z,99086.95
2018-09-03T21:08:20.834Z,99084.47
2018-09-03T21:10:48.472Z,99080.80
2018-09-03T21:13:16.205Z,99082.47
2018-09-03T21:15:43.953Z,99084.13
2018-09-03T21:18:11.629Z,99085.43
2018-09-03T21:20:39.313Z,99072.64
2018-09-03T21:23:07.118Z,99072.41
2018-09-03T21:25:34.881Z,99079.16
2018-09-03T21:28:03.470Z,99074.67
2018-09-03T21:30:31.205Z,99063.78
2018-09-03T21:32:58.904Z,99069.19
2018-09-03T21:35:26.631Z,99062.84
2018-09-03T21:37:54.819Z,99061.16
2018-09-03T21:40:22.546Z,99057.23
2018-09-03T21:42:50.195Z,99066.78
2018-09-03T21:45:17.936Z,99067.93
2018-09-03T21:47:45.676Z,99072.37
2018-09-03T21:50:13.354Z,99077.81
2018-09-03T21:52:41.066Z,99079.55
2018-09-03T21:55:08.764Z,99090.47
2018-09-03T21:57:36.451Z,99074.91
2018-09-03T22:00:04.598Z,99085.27
2018-09-03T22:02:32.287Z,99096.69
2018-09-03T22:04:59.975Z,99112.54
2018-09-03T22:07:27.719Z,99111.30
2018-09-03T22:09:55.414Z,99117.91
2018-09-03T22:12:23.085Z,99104.41
2018-09-03T22:14:50.773Z,99105.69
2018-09-03T22:17:18.463Z,99115.47
2018-09-03T22:19:46.147Z,99115.55
2018-09-03T22:22:13.854Z,99112.45
2018-09-03T22:24:41.657Z,99115.92
2018-09-03T22:27:09.339Z,99110.81
2018-09-03T22:29:37.046Z,99100.89
2018-09-03T22:32:04.831Z,99099.25
2018-09-03T22:34:32.523Z,99103.36
2018-09-03T22:37:00.217Z,99100.94
2018-09-03T22:39:27.885Z,99093.37
2018-09-03T22:41:55.543Z,99097.59
2018-09-03T22:44:23.255Z,99090.19
2018-09-03T22:46:50.937Z,99086.33
2018-09-03T22:49:18.628Z,99087.67
2018-09-03T22:51:46.356Z,99086.67
2018-09-03T22:54:14.019Z,99088.88
2018-09-03T22:56:41.718Z,99077.33
2018-09-03T22:59:09.434Z,99078.73
2018-09-03T23:01:37.101Z,99070.66
2018-09-03T23:04:04.889Z,99071.84
2018-09-03T23:06:32.563Z,99075.22
2018-09-03T23:09:00.246Z,99079.35
2018-09-03T23:11:27.980Z,99071.47
2018-09-03T23:13:55.702Z,99074.27
2018-09-03T23:16:23.423Z,99075.69
2018-09-03T23:18:51.186Z,99076.41
2018-09-03T23:21:19.040Z,99086.39
2018-09-03T23:23:46.811Z,99081.14
2018-09-03T23:26:14.501Z,99078.44
2018-09-03T23:28:42.255Z,99076.86
2018-09-03T23:31:09.970Z,99080.34
2018-09-03T23:33:37.707Z,99083.89
2018-09-03T23:36:05.449Z,99094.92
2018-09-03T23:38:33.228Z,99084.00
2018-09-03T23:41:00.929Z,99087.86
2018-09-03T23:43:28.765Z,99093.30
2018-09-03T23:45:56.553Z,99104.00
2018-09-03T23:48:24.299Z,99108.16
2018-09-03T23:50:52.197Z,99105.17
2018-09-03T23:53:19.933Z,99102.57
2018-09-03T23:55:47.838Z,99112.93
2018-09-03T23:58:15.538Z,99115.78
